Ferguson, North Carolina
Current Conditions -  °F | °C
As of 4:55 PM on Wednesday 28 Jan 2015 (Local Time) from KTNB Reporting Station
Clear Clear  
Wind Chill: 29°   Ceiling: Unl
Heat Index: 36°   Visibility: 10mi
Dew Point: 14°   Wind: 9mph
Humidity: 41%   Direction: 280°W
Pressure: 30.17"   Gusts: NA
Location:  36.09°N, 81.37°W
Report Text: KTNB 282155Z AUTO 28008KT 10SM CLR 02/M10 A3017 RMK AO2 T00201101
Loading
Personal Weather Stations






























Interactive Weather Map New forecast layout! Learn more

10-Day Weather Forecast

Advertisements
Track Severe Weather on mobile